Akaska, South Dakota
Current Conditions -  °F | °C
As of 1:04 PM on Monday 22 Dec 2014 (Local Time) from KMBG Reporting Station
Light Snow Light Snow  
Wind Chill: 22°   Ceiling: 700
Heat Index: 32°   Visibility: 3mi
Dew Point: 29°   Wind: 14mph
Humidity: 88%   Direction: 340°NNW
Pressure: 29.42"   Gusts: NA
Location:  45.33°N, 100.12°W
Report Text: KMBG 221904Z AUTO 34012KT 3SM -SN BR BKN007 OVC013 00/M02 A2942 RMK AO2 P0001 T00001017
Loading
Personal Weather Stations






























Interactive Weather Map New forecast layout! Learn more

10-Day Weather Forecast

Advertisements
Track Severe Weather on mobile